createdAt,value
2022-12-23T00:00:14.905Z,22.33
2022-12-23T00:02:42.798Z,24.00
2022-12-23T00:05:11.139Z,24.20
2022-12-23T00:07:40.225Z,24.70
2022-12-23T00:10:08.853Z,24.93
2022-12-23T00:12:54.257Z,30.10
2022-12-23T00:15:22.092Z,21.33
2022-12-23T00:17:49.823Z,26.67
2022-12-23T00:20:17.574Z,25.10
2022-12-23T00:23:04.221Z,22.47
2022-12-23T00:25:45.315Z,26.97
2022-12-23T00:28:14.996Z,24.87
2022-12-23T00:30:47.798Z,25.00
2022-12-23T00:33:15.855Z,26.53
2022-12-23T00:35:44.450Z,26.60
2022-12-23T00:38:13.588Z,23.13
2022-12-23T00:40:59.186Z,22.93
2022-12-23T00:43:26.935Z,20.73
2022-12-23T00:45:55.174Z,23.43
2022-12-23T00:48:40.336Z,23.00
2022-12-23T00:51:08.062Z,25.97
2022-12-23T00:53:37.148Z,25.87
2022-12-23T00:56:05.045Z,25.50
2022-12-23T00:58:32.971Z,25.00
2022-12-23T01:01:18.561Z,22.23
2022-12-23T01:04:03.653Z,25.90
2022-12-23T01:06:31.506Z,22.10
2022-12-23T01:09:00.593Z,28.03
2022-12-23T01:11:28.328Z,20.60
2022-12-23T01:13:56.051Z,25.07
2022-12-23T01:16:23.786Z,21.60
2022-12-23T01:18:51.539Z,20.97
2022-12-23T01:21:19.274Z,21.13
2022-12-23T01:23:46.999Z,20.73
2022-12-23T01:26:16.133Z,22.57
2022-12-23T01:28:44.168Z,23.33
2022-12-23T01:31:11.938Z,25.27
2022-12-23T01:33:39.739Z,25.37
2022-12-23T01:36:09.488Z,23.40
2022-12-23T01:38:37.232Z,23.23
2022-12-23T01:41:05.096Z,24.90
2022-12-23T01:43:50.343Z,26.03
2022-12-23T01:46:18.220Z,22.40
2022-12-23T01:48:50.619Z,29.17
2022-12-23T01:51:22.623Z,25.07
2022-12-23T01:53:53.582Z,28.70
2022-12-23T01:56:25.489Z,24.03
2022-12-23T01:58:58.914Z,27.23
2022-12-23T02:01:44.727Z,28.27
2022-12-23T02:04:17.056Z,26.23
2022-12-23T02:07:03.583Z,26.97
2022-12-23T02:09:32.996Z,26.23
2022-12-23T02:12:29.809Z,27.63
2022-12-23T02:15:31.867Z,24.67
2022-12-23T02:18:12.357Z,27.87
2022-12-23T02:21:14.364Z,25.47
2022-12-23T02:24:06.143Z,25.53
2022-12-23T02:27:09.790Z,26.50
2022-12-23T02:30:21.903Z,31.10
2022-12-23T02:33:13.977Z,21.30
2022-12-23T02:35:47.854Z,26.43
2022-12-23T02:38:21.533Z,34.27
2022-12-23T02:40:58.124Z,26.00
2022-12-23T02:43:33.130Z,27.23
2022-12-23T02:46:08.255Z,25.00
2022-12-23T02:48:46.891Z,26.80
2022-12-23T02:51:16.628Z,28.10
2022-12-23T02:53:50.064Z,29.97
2022-12-23T02:56:21.137Z,26.77
2022-12-23T02:58:54.334Z,30.57
2022-12-23T03:01:23.174Z,31.70
2022-12-23T03:03:52.727Z,27.27
2022-12-23T03:06:24.060Z,33.83
2022-12-23T03:08:55.583Z,30.03
2022-12-23T03:11:28.489Z,30.10
2022-12-23T03:14:15.994Z,39.10
2022-12-23T03:16:54.621Z,32.67
2022-12-23T03:19:30.850Z,30.43
2022-12-23T03:22:10.312Z,31.10
2022-12-23T03:24:44.472Z,32.07
2022-12-23T03:27:20.173Z,36.73
2022-12-23T03:29:55.844Z,32.77
2022-12-23T03:32:26.786Z,35.17
2022-12-23T03:35:00.263Z,30.30
2022-12-23T03:37:31.648Z,36.67
2022-12-23T03:40:05.297Z,38.47
2022-12-23T03:42:36.387Z,35.97
2022-12-23T03:45:37.548Z,36.00
2022-12-23T03:48:00.728Z,35.73
2022-12-23T03:50:31.075Z,32.53
2022-12-23T03:53:03.598Z,31.60
2022-12-23T03:55:35.588Z,37.57
2022-12-23T03:58:10.551Z,39.00
2022-12-23T04:00:44.760Z,36.57
2022-12-23T04:03:21.812Z,35.87
2022-12-23T04:05:55.117Z,41.63
2022-12-23T04:08:28.370Z,37.80
2022-12-23T04:10:56.165Z,40.80
2022-12-23T04:13:23.924Z,38.27
2022-12-23T04:15:51.715Z,35.53
2022-12-23T04:18:19.597Z,39.13
2022-12-23T04:20:47.345Z,37.07
2022-12-23T04:23:16.467Z,37.63
2022-12-23T04:25:44.197Z,40.40
2022-12-23T04:28:11.959Z,38.60
2022-12-23T04:30:39.846Z,38.20
2022-12-23T04:33:07.599Z,41.43
2022-12-23T04:35:35.317Z,37.17
2022-12-23T04:38:03.066Z,38.13
2022-12-23T04:40:32.397Z,43.03
2022-12-23T04:43:00.193Z,44.40
2022-12-23T04:45:27.949Z,42.50
2022-12-23T04:47:55.682Z,38.67
2022-12-23T04:50:23.421Z,35.87
2022-12-23T04:52:51.143Z,39.23
2022-12-23T04:55:19.019Z,46.33
2022-12-23T04:57:48.113Z,42.90
2022-12-23T05:00:16.809Z,38.30
2022-12-23T05:02:44.628Z,39.13
2022-12-23T05:05:12.493Z,32.63
2022-12-23T05:07:40.239Z,41.13
2022-12-23T05:10:09.622Z,49.00
2022-12-23T05:12:37.482Z,41.83
2022-12-23T05:15:08.324Z,42.33
2022-12-23T05:17:36.383Z,44.90
2022-12-23T05:20:04.128Z,44.93
2022-12-23T05:22:31.856Z,45.07
2022-12-23T05:24:59.588Z,49.83
2022-12-23T05:27:27.322Z,45.27
2022-12-23T05:29:55.019Z,51.30
2022-12-23T05:32:24.128Z,46.90
2022-12-23T05:34:51.857Z,50.90
2022-12-23T05:37:21.487Z,44.40
2022-12-23T05:39:49.184Z,46.10
2022-12-23T05:42:19.329Z,47.23
2022-12-23T05:44:47.149Z,49.73
2022-12-23T05:47:15.052Z,47.17
2022-12-23T05:49:44.159Z,55.17
2022-12-23T05:52:20.624Z,50.83
2022-12-23T05:54:48.323Z,48.70
2022-12-23T05:57:16.055Z,46.70
2022-12-23T05:59:43.876Z,46.13
2022-12-23T06:02:11.824Z,51.40
2022-12-23T06:04:39.731Z,42.03
2022-12-23T06:07:09.739Z,46.90
2022-12-23T06:09:37.458Z,48.70
2022-12-23T06:12:05.677Z,47.70
2022-12-23T06:14:33.434Z,52.10
2022-12-23T06:17:01.262Z,54.43
2022-12-23T06:19:29.043Z,49.90
2022-12-23T06:21:57.187Z,57.37
2022-12-23T06:24:26.316Z,48.10
2022-12-23T06:26:57.271Z,55.23
2022-12-23T06:29:25.432Z,56.10
2022-12-23T06:31:53.288Z,56.90
2022-12-23T06:34:21.093Z,47.87
2022-12-23T06:36:48.962Z,46.70
2022-12-23T06:39:16.723Z,47.30
2022-12-23T06:41:45.829Z,51.10
2022-12-23T06:44:13.550Z,44.97
2022-12-23T06:46:41.256Z,48.90
2022-12-23T06:49:13.169Z,45.17
2022-12-23T06:51:41.640Z,50.73
2022-12-23T06:54:11.271Z,50.27
2022-12-23T06:56:39.117Z,54.37
2022-12-23T06:59:08.219Z,47.43
2022-12-23T07:01:36.033Z,50.87
2022-12-23T07:04:04.642Z,59.27
2022-12-23T07:06:32.439Z,48.83
2022-12-23T07:09:00.191Z,54.23
2022-12-23T07:11:28.019Z,49.23
2022-12-23T07:13:55.761Z,56.93
2022-12-23T07:16:24.850Z,59.53
2022-12-23T07:18:52.610Z,47.63
2022-12-23T07:21:28.695Z,48.00
2022-12-23T07:23:57.574Z,53.40
2022-12-23T07:26:25.336Z,46.50
2022-12-23T07:28:53.131Z,49.27
2022-12-23T07:31:20.986Z,49.97
2022-12-23T07:33:50.168Z,53.47
2022-12-23T07:36:18.972Z,52.53
2022-12-23T07:38:50.375Z,49.87
2022-12-23T07:41:18.335Z,44.53
2022-12-23T07:43:46.191Z,52.93
2022-12-23T07:46:14.015Z,56.83
2022-12-23T07:48:42.414Z,54.87
2022-12-23T07:51:11.521Z,46.37
2022-12-23T07:53:39.261Z,44.93
2022-12-23T07:56:07.790Z,49.43
2022-12-23T07:58:35.536Z,46.27
2022-12-23T08:01:04.877Z,44.57
2022-12-23T08:03:33.110Z,51.43
2022-12-23T08:06:02.577Z,52.93
2022-12-23T08:08:31.800Z,52.83
2022-12-23T08:11:01.021Z,57.20
2022-12-23T08:13:29.380Z,48.40
2022-12-23T08:15:57.852Z,52.80
2022-12-23T08:18:26.309Z,46.73
2022-12-23T08:20:58.271Z,53.00
2022-12-23T08:23:27.121Z,44.00
2022-12-23T08:26:03.832Z,50.67
2022-12-23T08:28:32.423Z,48.83
2022-12-23T08:31:06.144Z,43.93
2022-12-23T08:33:33.980Z,48.70
2022-12-23T08:36:01.746Z,49.67
2022-12-23T08:38:29.800Z,48.60
2022-12-23T08:40:57.687Z,44.37
2022-12-23T08:43:33.600Z,37.50
2022-12-23T08:46:03.589Z,45.00
2022-12-23T08:48:31.425Z,46.73
2022-12-23T08:51:03.002Z,41.87
2022-12-23T08:53:30.697Z,41.80
2022-12-23T08:56:03.600Z,37.23
2022-12-23T08:58:33.333Z,32.40
2022-12-23T09:01:04.415Z,40.20
2022-12-23T09:03:32.534Z,36.33
2022-12-23T09:06:00.499Z,35.43
2022-12-23T09:08:28.215Z,30.30
2022-12-23T09:10:56.000Z,40.90
2022-12-23T09:13:32.749Z,36.23
2022-12-23T09:16:03.974Z,33.27
2022-12-23T09:18:32.221Z,35.70
2022-12-23T09:21:00.743Z,38.10
2022-12-23T09:23:29.253Z,28.73
2022-12-23T09:25:57.438Z,31.33
2022-12-23T09:28:26.099Z,28.83
2022-12-23T09:30:54.331Z,29.63
2022-12-23T09:33:23.491Z,27.13
2022-12-23T09:35:51.254Z,30.70
2022-12-23T09:38:19.005Z,35.53
2022-12-23T09:40:46.786Z,33.47
2022-12-23T09:43:25.908Z,32.17
2022-12-23T09:46:05.391Z,31.97
2022-12-23T09:48:40.148Z,30.63
2022-12-23T09:51:10.036Z,30.97
2022-12-23T09:53:50.667Z,30.57
2022-12-23T09:56:25.100Z,29.93
2022-12-23T09:58:59.821Z,31.77
2022-12-23T10:01:33.808Z,28.07
2022-12-23T10:04:34.177Z,23.87
2022-12-23T10:07:26.375Z,28.07
2022-12-23T10:09:56.342Z,27.30
2022-12-23T10:12:39.855Z,26.90
2022-12-23T10:15:22.580Z,21.47
2022-12-23T10:17:54.248Z,23.90
2022-12-23T10:20:37.205Z,23.07
2022-12-23T10:23:07.855Z,25.73
2022-12-23T10:25:40.314Z,25.87
2022-12-23T10:28:11.131Z,24.37
2022-12-23T10:31:10.897Z,21.03
2022-12-23T10:33:40.811Z,12.77
2022-12-23T10:36:15.468Z,17.57
2022-12-23T10:38:55.355Z,21.23
2022-12-23T10:41:37.807Z,19.73
2022-12-23T10:44:27.201Z,16.63
2022-12-23T10:47:08.326Z,14.53
2022-12-23T10:49:45.656Z,15.70
2022-12-23T10:52:19.654Z,14.47
2022-12-23T10:54:48.557Z,12.03
2022-12-23T10:57:19.340Z,11.33
2022-12-23T10:59:47.722Z,12.83
2022-12-23T11:02:33.126Z,17.33
2022-12-23T11:05:00.991Z,11.33
2022-12-23T11:07:46.468Z,14.30
2022-12-23T11:10:18.803Z,12.90
2022-12-23T11:12:49.206Z,13.67
2022-12-23T11:15:32.158Z,13.23
2022-12-23T11:18:06.470Z,10.73
2022-12-23T11:20:34.776Z,13.37
2022-12-23T11:23:05.913Z,15.10
2022-12-23T11:25:37.334Z,18.90
2022-12-23T11:28:12.227Z,7.17
2022-12-23T11:30:55.407Z,6.77
2022-12-23T11:33:27.241Z,8.97
2022-12-23T11:36:03.767Z,9.53
2022-12-23T11:38:33.641Z,11.23
2022-12-23T11:41:01.540Z,11.13
2022-12-23T11:43:29.891Z,10.23
2022-12-23T11:46:18.891Z,9.23
2022-12-23T11:48:52.845Z,8.53
2022-12-23T11:51:27.788Z,11.87
2022-12-23T11:54:02.757Z,8.73
2022-12-23T11:56:37.445Z,7.87
2022-12-23T11:59:08.832Z,8.23
2022-12-23T12:01:39.309Z,8.47
2022-12-23T12:04:09.854Z,6.60
2022-12-23T12:06:43.952Z,7.77
2022-12-23T12:09:14.865Z,8.90
2022-12-23T12:11:49.620Z,9.00
2022-12-23T12:14:24.360Z,6.37
2022-12-23T12:16:58.074Z,5.70
2022-12-23T12:19:31.163Z,6.20
2022-12-23T12:22:05.736Z,7.73
2022-12-23T12:24:42.103Z,10.33
2022-12-23T12:27:12.357Z,6.23
2022-12-23T12:29:45.723Z,7.57
2022-12-23T12:32:20.269Z,6.67
2022-12-23T12:34:54.592Z,6.60
2022-12-23T12:37:30.709Z,8.47
2022-12-23T12:40:03.546Z,8.23
2022-12-23T12:42:36.313Z,5.43
2022-12-23T12:45:15.446Z,4.83
2022-12-23T12:47:54.961Z,3.93
2022-12-23T12:50:28.525Z,5.07
2022-12-23T12:53:01.527Z,5.00
2022-12-23T12:55:34.345Z,2.70
2022-12-23T12:58:03.538Z,6.77
2022-12-23T13:00:50.090Z,3.47
2022-12-23T13:03:42.932Z,4.37
2022-12-23T13:06:21.982Z,4.90
2022-12-23T13:09:02.304Z,2.87
2022-12-23T13:11:45.073Z,2.87
2022-12-23T13:14:24.519Z,3.47
2022-12-23T13:17:01.974Z,9.10
2022-12-23T13:19:37.606Z,2.23
2022-12-23T13:22:10.068Z,2.30
2022-12-23T13:24:57.923Z,4.27
2022-12-23T13:27:33.891Z,5.50
2022-12-23T13:30:07.883Z,3.20
2022-12-23T13:32:50.573Z,2.27
2022-12-23T13:35:33.659Z,3.97
2022-12-23T13:38:13.737Z,2.00
2022-12-23T13:40:48.772Z,4.30
2022-12-23T13:43:21.364Z,5.07
2022-12-23T13:45:51.083Z,2.70
2022-12-23T13:48:37.717Z,2.47
2022-12-23T13:51:11.234Z,15.40
2022-12-23T13:53:56.868Z,3.70
2022-12-23T13:56:31.753Z,19.17
2022-12-23T13:59:01.138Z,6.70
2022-12-23T14:01:37.590Z,3.43
2022-12-23T14:04:58.296Z,21.20
2022-12-23T14:07:28.836Z,7.77
2022-12-23T14:09:58.763Z,6.37
2022-12-23T14:12:29.160Z,3.57
2022-12-23T14:15:22.307Z,3.37
2022-12-23T14:18:02.695Z,6.53
2022-12-23T14:20:44.439Z,4.33
2022-12-23T14:23:28.470Z,11.13
2022-12-23T14:26:20.521Z,30.10
2022-12-23T14:29:02.753Z,5.87
2022-12-23T14:31:36.496Z,5.10
2022-12-23T14:34:07.230Z,8.37
2022-12-23T14:36:35.119Z,5.70
2022-12-23T14:39:30.101Z,5.50
2022-12-23T14:42:05.127Z,6.17
2022-12-23T14:44:52.349Z,3.43
2022-12-23T14:47:35.642Z,8.53
2022-12-23T14:50:39.738Z,7.13
2022-12-23T14:53:23.167Z,4.07
2022-12-23T14:55:53.201Z,4.83
2022-12-23T14:59:05.947Z,5.97
2022-12-23T15:01:39.821Z,3.63
2022-12-23T15:04:19.485Z,4.33
2022-12-23T15:06:51.525Z,6.50
2022-12-23T15:09:26.420Z,8.33
2022-12-23T15:11:55.658Z,9.57
2022-12-23T15:14:33.865Z,5.53
2022-12-23T15:17:16.660Z,6.17
2022-12-23T15:19:48.806Z,11.90
2022-12-23T15:22:23.685Z,4.83
2022-12-23T15:24:53.231Z,9.73
2022-12-23T15:27:30.261Z,10.40
2022-12-23T15:29:59.531Z,6.23
2022-12-23T15:32:28.957Z,8.67
2022-12-23T15:35:03.286Z,5.97
2022-12-23T15:37:32.565Z,10.47
2022-12-23T15:40:11.548Z,11.67
2022-12-23T15:42:48.639Z,12.90
2022-12-23T15:45:32.152Z,8.00
2022-12-23T15:47:59.978Z,9.00
2022-12-23T15:50:29.851Z,10.23
2022-12-23T15:53:06.329Z,7.40
2022-12-23T15:55:36.560Z,10.47
2022-12-23T15:58:05.655Z,12.73
2022-12-23T16:00:39.641Z,13.00
2022-12-23T16:03:19.954Z,7.83
2022-12-23T16:05:49.265Z,8.27
2022-12-23T16:08:29.075Z,10.20
2022-12-23T16:11:04.410Z,11.63
2022-12-23T16:13:32.430Z,13.70
2022-12-23T16:16:30.629Z,7.70
2022-12-23T16:18:58.469Z,5.97
2022-12-23T16:21:31.025Z,14.60
2022-12-23T16:24:00.883Z,11.40
2022-12-23T16:26:28.939Z,12.70
2022-12-23T16:29:00.673Z,11.77
2022-12-23T16:31:28.894Z,14.07
2022-12-23T16:33:59.114Z,12.87
2022-12-23T16:36:36.619Z,32.93
2022-12-23T16:39:16.059Z,18.07
2022-12-23T16:41:43.888Z,28.93
2022-12-23T16:44:11.641Z,33.80
2022-12-23T16:46:43.733Z,24.83
2022-12-23T16:49:16.858Z,27.10
2022-12-23T16:51:46.318Z,17.70
2022-12-23T16:54:16.020Z,23.33
2022-12-23T16:56:46.453Z,19.13
2022-12-23T16:59:14.565Z,19.43
2022-12-23T17:01:45.542Z,15.77
2022-12-23T17:04:13.733Z,14.77
2022-12-23T17:06:41.986Z,19.07
2022-12-23T17:09:12.275Z,18.93
2022-12-23T17:11:44.498Z,19.73
2022-12-23T17:14:16.714Z,21.37
2022-12-23T17:16:45.519Z,19.80
2022-12-23T17:19:13.688Z,23.43
2022-12-23T17:21:45.777Z,18.80
2022-12-23T17:24:20.530Z,20.87
2022-12-23T17:26:48.456Z,28.63
2022-12-23T17:29:16.797Z,23.33
2022-12-23T17:31:45.682Z,18.37
2022-12-23T17:34:16.768Z,14.60
2022-12-23T17:36:49.966Z,14.60
2022-12-23T17:39:20.562Z,19.47
2022-12-23T17:41:49.041Z,34.67
2022-12-23T17:44:18.251Z,22.60
2022-12-23T17:46:47.265Z,21.60
2022-12-23T17:49:15.162Z,25.77
2022-12-23T17:51:43.942Z,28.37
2022-12-23T17:54:23.252Z,23.80
2022-12-23T17:56:51.130Z,26.87
2022-12-23T17:59:18.842Z,21.33
2022-12-23T18:01:46.743Z,19.73
2022-12-23T18:04:14.568Z,19.13
2022-12-23T18:06:42.298Z,19.20
2022-12-23T18:09:10.048Z,23.10
2022-12-23T18:11:42.588Z,23.90
2022-12-23T18:14:17.243Z,23.20
2022-12-23T18:16:45.137Z,24.93
2022-12-23T18:19:17.602Z,23.30
2022-12-23T18:21:45.558Z,15.67
2022-12-23T18:24:13.295Z,22.97
2022-12-23T18:26:42.408Z,20.70
2022-12-23T18:29:10.196Z,18.37
2022-12-23T18:31:51.418Z,20.70
2022-12-23T18:34:20.825Z,21.80
2022-12-23T18:36:52.219Z,21.90
2022-12-23T18:39:20.181Z,24.20
2022-12-23T18:41:49.350Z,58.47
2022-12-23T18:44:19.787Z,28.93
2022-12-23T18:46:47.608Z,29.27
2022-12-23T18:49:15.524Z,17.50
2022-12-23T18:51:43.800Z,26.93
2022-12-23T18:54:14.591Z,24.33
2022-12-23T18:56:42.741Z,21.80
2022-12-23T18:59:16.981Z,32.00
2022-12-23T19:01:44.843Z,19.47
2022-12-23T19:04:12.726Z,48.57
2022-12-23T19:06:40.661Z,135.60
2022-12-23T19:09:09.011Z,42.17
2022-12-23T19:11:36.736Z,23.43
2022-12-23T19:14:04.462Z,30.60
2022-12-23T19:16:33.780Z,32.67
2022-12-23T19:19:02.085Z,22.77
2022-12-23T19:21:29.841Z,21.00
2022-12-23T19:23:58.260Z,24.60
2022-12-23T19:26:26.166Z,24.10
2022-12-23T19:28:53.952Z,27.77
2022-12-23T19:31:23.148Z,18.60
2022-12-23T19:33:52.521Z,32.87
2022-12-23T19:36:23.779Z,42.53
2022-12-23T19:38:51.988Z,44.10
2022-12-23T19:41:19.985Z,60.00
2022-12-23T19:43:48.316Z,75.97
2022-12-23T19:46:17.273Z,46.83
2022-12-23T19:48:45.079Z,68.80
2022-12-23T19:51:15.509Z,56.03
2022-12-23T19:53:44.734Z,96.10
2022-12-23T19:56:13.945Z,33.47
2022-12-23T19:58:43.885Z,45.93
2022-12-23T20:01:14.202Z,35.43
2022-12-23T20:03:45.355Z,35.93
2022-12-23T20:06:18.062Z,36.77
2022-12-23T20:08:45.818Z,44.73
2022-12-23T20:11:15.735Z,28.53
2022-12-23T20:13:43.682Z,29.17
2022-12-23T20:16:12.302Z,44.90
2022-12-23T20:18:40.704Z,34.30
2022-12-23T20:21:08.468Z,22.73
2022-12-23T20:23:37.615Z,32.40
2022-12-23T20:26:05.818Z,20.93
2022-12-23T20:28:34.102Z,16.70
2022-12-23T20:31:07.483Z,14.50
2022-12-23T20:33:35.709Z,14.80
2022-12-23T20:36:03.809Z,16.10
2022-12-23T20:38:31.606Z,18.23
2022-12-23T20:41:00.697Z,17.33
2022-12-23T20:43:28.458Z,19.33
2022-12-23T20:45:56.193Z,16.97
2022-12-23T20:48:28.100Z,18.57
2022-12-23T20:51:05.375Z,22.70
2022-12-23T20:53:33.284Z,41.50
2022-12-23T20:56:02.581Z,39.30
2022-12-23T20:58:47.744Z,37.70
2022-12-23T21:01:15.996Z,12.47
2022-12-23T21:03:43.816Z,16.23
2022-12-23T21:06:11.625Z,12.30
2022-12-23T21:08:40.219Z,15.27
2022-12-23T21:11:09.363Z,15.07
2022-12-23T21:13:40.249Z,14.30
2022-12-23T21:16:10.217Z,14.20
2022-12-23T21:18:41.010Z,14.27
2022-12-23T21:21:08.885Z,14.57
2022-12-23T21:23:41.682Z,15.70
2022-12-23T21:26:13.654Z,16.33
2022-12-23T21:28:42.672Z,15.93
2022-12-23T21:31:11.335Z,15.37
2022-12-23T21:33:40.630Z,14.00
2022-12-23T21:36:12.663Z,13.17
2022-12-23T21:38:44.956Z,15.93
2022-12-23T21:41:16.176Z,15.87
2022-12-23T21:43:44.408Z,14.87
2022-12-23T21:46:14.267Z,13.93
2022-12-23T21:48:42.695Z,12.73
2022-12-23T21:51:14.595Z,14.90
2022-12-23T21:53:43.554Z,11.10
2022-12-23T21:56:15.202Z,10.70
2022-12-23T21:58:43.799Z,11.37
2022-12-23T22:01:14.524Z,11.10
2022-12-23T22:03:43.214Z,10.27
2022-12-23T22:06:13.590Z,10.67
2022-12-23T22:08:41.948Z,14.93
2022-12-23T22:11:11.699Z,13.83
2022-12-23T22:13:41.886Z,12.20
2022-12-23T22:16:10.844Z,12.20
2022-12-23T22:18:39.704Z,9.80
2022-12-23T22:21:09.030Z,13.53
2022-12-23T22:23:37.373Z,11.23
2022-12-23T22:26:06.468Z,14.60
2022-12-23T22:28:36.148Z,14.43
2022-12-23T22:31:07.117Z,10.70
2022-12-23T22:33:35.603Z,10.87
2022-12-23T22:36:03.412Z,17.73
2022-12-23T22:38:31.137Z,10.77
2022-12-23T22:40:58.895Z,13.20
2022-12-23T22:43:26.623Z,12.07
2022-12-23T22:45:57.877Z,15.53
2022-12-23T22:48:28.973Z,11.77
2022-12-23T22:51:02.666Z,11.40
2022-12-23T22:53:31.397Z,13.50
2022-12-23T22:55:59.790Z,10.87
2022-12-23T22:58:27.613Z,12.17
2022-12-23T23:00:55.724Z,10.77
2022-12-23T23:03:23.473Z,13.67
2022-12-23T23:06:00.460Z,13.47
2022-12-23T23:08:28.489Z,10.57
2022-12-23T23:10:58.256Z,11.07
2022-12-23T23:13:26.723Z,10.13
2022-12-23T23:15:55.988Z,13.83
2022-12-23T23:18:24.608Z,16.53
2022-12-23T23:20:52.944Z,13.40
2022-12-23T23:23:22.680Z,14.63
2022-12-23T23:25:50.575Z,13.27
2022-12-23T23:28:18.842Z,13.50
2022-12-23T23:30:46.605Z,12.80
2022-12-23T23:33:14.519Z,13.27
2022-12-23T23:35:42.237Z,10.20
2022-12-23T23:38:10.588Z,10.70
2022-12-23T23:40:39.703Z,13.63
2022-12-23T23:43:07.430Z,12.47
2022-12-23T23:45:35.196Z,12.87
2022-12-23T23:48:03.010Z,13.47
2022-12-23T23:50:31.241Z,13.90
2022-12-23T23:52:59.062Z,10.10
2022-12-23T23:55:26.804Z,13.33
2022-12-23T23:57:55.882Z,10.90
